Marana, AZ (85658)

12:27 PM MST on August 29, 2014 (GMT -0700)
El Tiro Gliderport | Change Station
CLOSE
Current Station
Personal Weather Station
Location: Marana, AZ
Elevation: 2100 ft
Nearby Weather Stations

Elev 2100 ft 32.43 °N, 111.39 °W | Updated 6 seconds ago

Clear
Clear
98.4 °F
Feels Like 93 °F
N
9.8
Wind Variable Wind from WNW
Gusts 9.8 mph

Today
High -- | Low -- °F
--% Chance of Precip.
Yesterday
High -- | Low -- °F
Precip. -- in
5:58 AM 6:53 PM
Waxing Crescent, 16% visible
Pressure 29.93 in
Visibility 10.0 miles
Clouds Clear
Heat Index 93 °F
Dew Point 32 °F
Humidity 10%
Rainfall 0.00 in
Snow Depth Not available.
UV 11 out of 12
Pollen 6.40 out of 12
Air Quality Not available.
Flu Activity Not available.
METAR KRYN 291850Z 32008KT 10SM CLR 36/08 A2993

More Conditions Fewer Conditions

Pressure 29.93 in
Visibility 10.0 miles
Clouds Clear
Heat Index 93 °F
Dew Point 32 °F
Humidity 10%
Rainfall 0.00 in
Snow Depth Not available.
UV 11 out of 12
Pollen 6.40 out of 12
Air Quality Not available.
Flu Activity Not available.
METAR KRYN 291850Z 32008KT 10SM CLR 36/08 A2993

More Conditions Fewer Conditions

10-Day Weather Forecast

Almanac

Astronomy

Aug. 29, 2014 Rise Set
Actual Time 5:58 AM MST 6:53 PM MST
Civil Twilight 5:33 AM MST 7:18 PM MST
Nautical Twilight 5:03 AM MST 7:48 PM MST
Astronomical Twilight 4:32 AM MST 8:18 PM MST
Moon 9:35 AM MST 9:09 PM MST
Length of Visible Light 13h 45m
Length of Day
12h 54m
Tomorrow will be 1m 54s shorter.
Waxing Crescent, 16% of the Moon is Illuminated
Today
Waxing Crescent
Sep 2
First Quarter
Sep 8
Full
Sep 15
Last Quarter
Sep 24
New

Today's Extremes

State Highs State Lows

Community

WunderPhotos

Upload Photos

1,748,315 photos uploaded!

WunderBlogs® & News

By Dr. Jeff Masters
Director of Meteorology, Weather Underground
By Kari Strenfel
Meteorologist, Weather Underground
By Christopher C. Burt
Weather Historian, Weather Underground
August 29, 2014
August 29, 2014
August 29, 2014

Nearby

Snow Depth

Station Depth Elevation
Workman Creek 1 in 6900 ft
Beaver Head 9 in 7990 ft

Earthquake Activity

City Distance Mag. Time & Date
No recent earthquake activity has been reported nearby.
Minimum magnitude displayed is 2.5.

Coastal Water Temperatures

Place Temperature
No Stations Reporting

Nearby Weather Stations